createdAt,value
2022-10-28T00:00:33.379Z,11.40
2022-10-28T00:03:01.982Z,9.73
2022-10-28T00:05:33.352Z,14.55
2022-10-28T00:08:00.122Z,13.30
2022-10-28T00:10:26.924Z,14.18
2022-10-28T00:12:53.674Z,10.55
2022-10-28T00:15:20.418Z,11.30
2022-10-28T00:17:47.288Z,11.73
2022-10-28T00:20:15.785Z,10.48
2022-10-28T00:22:42.971Z,20.30
2022-10-28T00:25:10.489Z,14.68
2022-10-28T00:27:37.410Z,13.02
2022-10-28T00:30:04.913Z,17.38
2022-10-28T00:32:32.383Z,11.88
2022-10-28T00:34:59.126Z,11.88
2022-10-28T00:37:25.917Z,12.90
2022-10-28T00:39:52.745Z,13.68
2022-10-28T00:42:22.194Z,10.40
2022-10-28T00:45:00.265Z,13.10
2022-10-28T00:47:33.017Z,12.50
2022-10-28T00:50:23.046Z,15.70
2022-10-28T00:52:56.367Z,14.02
2022-10-28T00:55:24.426Z,15.60
2022-10-28T00:57:56.538Z,16.73
2022-10-28T01:00:25.046Z,22.95
2022-10-28T01:02:52.084Z,18.45
2022-10-28T01:05:25.664Z,15.23
2022-10-28T01:07:56.052Z,14.13
2022-10-28T01:10:48.345Z,19.00
2022-10-28T01:13:21.090Z,13.05
2022-10-28T01:16:19.950Z,15.15
2022-10-28T01:18:55.078Z,17.45
2022-10-28T01:21:24.932Z,13.10
2022-10-28T01:24:20.294Z,14.68
2022-10-28T01:27:05.663Z,15.63
2022-10-28T01:29:54.094Z,12.77
2022-10-28T01:32:48.006Z,16.98
2022-10-28T01:35:42.064Z,13.80
2022-10-28T01:38:12.421Z,14.82
2022-10-28T01:40:52.664Z,12.73
2022-10-28T01:43:50.144Z,15.15
2022-10-28T01:46:27.596Z,13.18
2022-10-28T01:49:05.926Z,13.52
2022-10-28T01:51:38.194Z,10.93
2022-10-28T01:54:07.898Z,13.50
2022-10-28T01:56:41.396Z,14.43
2022-10-28T01:59:12.664Z,13.32
2022-10-28T02:01:39.901Z,16.15
2022-10-28T02:04:06.863Z,14.05
2022-10-28T02:06:35.155Z,12.73
2022-10-28T02:09:18.614Z,15.68
2022-10-28T02:12:16.643Z,12.52
2022-10-28T02:14:46.372Z,15.90
2022-10-28T02:17:36.567Z,13.38
2022-10-28T02:20:25.383Z,13.23
2022-10-28T02:23:17.435Z,16.13
2022-10-28T02:26:19.311Z,16.40
2022-10-28T02:28:57.817Z,15.20
2022-10-28T02:31:35.365Z,17.17
2022-10-28T02:34:11.688Z,14.65
2022-10-28T02:36:43.282Z,11.70
2022-10-28T02:39:11.683Z,14.07
2022-10-28T02:41:50.576Z,15.65
2022-10-28T02:44:29.128Z,13.02
2022-10-28T02:46:59.345Z,16.25
2022-10-28T02:49:28.318Z,13.00
2022-10-28T02:52:04.944Z,16.52
2022-10-28T02:54:54.924Z,14.25
2022-10-28T02:57:37.678Z,15.75
2022-10-28T03:00:10.713Z,13.77
2022-10-28T03:02:37.728Z,14.02
2022-10-28T03:05:06.233Z,12.40
2022-10-28T03:07:33.030Z,13.63
2022-10-28T03:09:59.898Z,13.07
2022-10-28T03:12:26.690Z,14.15
2022-10-28T03:14:53.490Z,14.77
2022-10-28T03:17:20.285Z,13.60
2022-10-28T03:19:47.092Z,14.60
2022-10-28T03:22:13.909Z,17.13
2022-10-28T03:24:40.746Z,13.40
2022-10-28T03:27:07.477Z,12.82
2022-10-28T03:29:34.256Z,14.18
2022-10-28T03:32:01.035Z,15.32
2022-10-28T03:34:27.754Z,15.40
2022-10-28T03:36:54.486Z,16.88
2022-10-28T03:39:21.277Z,14.43
2022-10-28T03:41:48.075Z,16.38
2022-10-28T03:44:14.986Z,15.90
2022-10-28T03:46:41.819Z,15.52
2022-10-28T03:49:08.587Z,13.65
2022-10-28T03:51:35.384Z,14.55
2022-10-28T03:54:02.271Z,20.33
2022-10-28T03:56:29.039Z,16.73
2022-10-28T03:58:55.865Z,18.63
2022-10-28T04:01:22.832Z,12.45
2022-10-28T04:03:49.698Z,15.45
2022-10-28T04:06:17.105Z,16.52
2022-10-28T04:08:43.921Z,18.77
2022-10-28T04:11:10.743Z,13.45
2022-10-28T04:13:37.528Z,18.33
2022-10-28T04:16:04.637Z,19.33
2022-10-28T04:18:31.967Z,13.57
2022-10-28T04:20:58.752Z,16.90
2022-10-28T04:23:25.560Z,16.83
2022-10-28T04:25:54.208Z,16.42
2022-10-28T04:28:24.138Z,15.75
2022-10-28T04:30:51.024Z,18.25
2022-10-28T04:33:17.800Z,16.40
2022-10-28T04:35:45.019Z,18.42
2022-10-28T04:38:12.773Z,19.88
2022-10-28T04:40:39.782Z,23.35
2022-10-28T04:43:08.613Z,18.27
2022-10-28T04:45:37.642Z,18.23
2022-10-28T04:48:04.661Z,20.70
2022-10-28T04:50:31.475Z,26.83
2022-10-28T04:52:58.263Z,16.85
2022-10-28T04:55:25.062Z,17.25
2022-10-28T04:57:59.609Z,22.75
2022-10-28T05:00:27.847Z,19.05
2022-10-28T05:02:55.562Z,18.05
2022-10-28T05:05:22.613Z,16.90
2022-10-28T05:07:49.398Z,17.48
2022-10-28T05:10:18.059Z,18.60
2022-10-28T05:12:46.082Z,22.52
2022-10-28T05:15:14.515Z,16.80
2022-10-28T05:17:45.766Z,17.90
2022-10-28T05:20:13.892Z,19.70
2022-10-28T05:22:47.124Z,20.35
2022-10-28T05:25:13.920Z,19.42
2022-10-28T05:27:40.874Z,25.65
2022-10-28T05:30:08.655Z,17.33
2022-10-28T05:32:35.403Z,18.25
2022-10-28T05:35:02.700Z,17.33
2022-10-28T05:37:29.502Z,20.70
2022-10-28T05:39:56.263Z,21.65
2022-10-28T05:42:23.119Z,23.17
2022-10-28T05:44:49.915Z,19.55
2022-10-28T05:47:16.721Z,21.92
2022-10-28T05:49:43.485Z,23.58
2022-10-28T05:52:10.274Z,22.77
2022-10-28T05:54:37.025Z,30.83
2022-10-28T05:57:03.842Z,20.27
2022-10-28T05:59:30.619Z,27.42
2022-10-28T06:01:57.408Z,26.77
2022-10-28T06:04:24.329Z,25.83
2022-10-28T06:06:54.118Z,27.75
2022-10-28T06:09:20.874Z,20.30
2022-10-28T06:11:46.218Z,20.65
2022-10-28T06:14:13.001Z,19.20
2022-10-28T06:16:39.805Z,21.90
2022-10-28T06:19:06.551Z,25.50
2022-10-28T06:21:33.322Z,21.63
2022-10-28T06:24:00.106Z,22.38
2022-10-28T06:26:26.914Z,27.42
2022-10-28T06:28:55.040Z,18.73
2022-10-28T06:31:21.814Z,16.58
2022-10-28T06:33:48.578Z,21.88
2022-10-28T06:36:15.418Z,16.55
2022-10-28T06:38:42.749Z,20.73
2022-10-28T06:41:09.585Z,18.38
2022-10-28T06:43:36.426Z,21.23
2022-10-28T06:46:04.137Z,17.25
2022-10-28T06:48:32.523Z,16.05
2022-10-28T06:50:59.636Z,18.77
2022-10-28T06:53:26.543Z,24.73
2022-10-28T06:55:54.921Z,19.40
2022-10-28T06:58:21.965Z,24.23
2022-10-28T07:00:48.830Z,23.38
2022-10-28T07:03:16.292Z,26.98
2022-10-28T07:05:43.363Z,26.50
2022-10-28T07:08:10.511Z,25.13
2022-10-28T07:10:37.765Z,25.40
2022-10-28T07:13:04.759Z,23.02
2022-10-28T07:15:31.618Z,23.77
2022-10-28T07:17:59.482Z,24.13
2022-10-28T07:20:27.694Z,27.05
2022-10-28T07:23:01.990Z,27.38
2022-10-28T07:25:30.541Z,23.23
2022-10-28T07:27:58.412Z,22.08
2022-10-28T07:30:25.715Z,20.92
2022-10-28T07:32:53.018Z,22.33
2022-10-28T07:35:20.140Z,21.98
2022-10-28T07:37:47.204Z,19.83
2022-10-28T07:40:14.279Z,20.50
2022-10-28T07:42:41.081Z,22.50
2022-10-28T07:45:08.233Z,25.77
2022-10-28T07:47:35.305Z,24.90
2022-10-28T07:50:02.151Z,18.70
2022-10-28T07:52:29.020Z,16.77
2022-10-28T07:54:56.011Z,21.70
2022-10-28T07:57:22.840Z,19.95
2022-10-28T07:59:49.869Z,18.58
2022-10-28T08:02:19.275Z,20.67
2022-10-28T08:04:46.138Z,16.15
2022-10-28T08:07:13.561Z,16.67
2022-10-28T08:09:40.662Z,18.92
2022-10-28T08:12:08.773Z,17.83
2022-10-28T08:14:35.749Z,22.45
2022-10-28T08:17:02.645Z,21.42
2022-10-28T08:19:29.838Z,25.05
2022-10-28T08:21:57.143Z,24.63
2022-10-28T08:24:24.132Z,26.95
2022-10-28T08:26:51.928Z,26.35
2022-10-28T08:29:18.658Z,23.50
2022-10-28T08:31:45.483Z,27.70
2022-10-28T08:34:12.497Z,19.15
2022-10-28T08:36:39.277Z,16.33
2022-10-28T08:39:06.242Z,18.02
2022-10-28T08:41:32.953Z,17.77
2022-10-28T08:44:08.660Z,25.95
2022-10-28T08:46:50.556Z,17.75
2022-10-28T08:49:21.407Z,19.95
2022-10-28T08:51:55.211Z,19.27
2022-10-28T08:54:27.531Z,16.17
2022-10-28T08:56:56.181Z,17.52
2022-10-28T08:59:29.699Z,19.17
2022-10-28T09:02:19.467Z,16.65
2022-10-28T09:04:46.875Z,11.80
2022-10-28T09:07:20.098Z,10.02
2022-10-28T09:09:49.100Z,9.68
2022-10-28T09:13:29.985Z,13.43
2022-10-28T09:16:06.047Z,14.68
2022-10-28T09:18:52.383Z,11.10
2022-10-28T09:21:23.934Z,14.38
2022-10-28T09:23:57.064Z,15.10
2022-10-28T09:26:32.688Z,11.55
2022-10-28T09:29:17.929Z,12.40
2022-10-28T09:32:09.555Z,9.93
2022-10-28T09:34:58.300Z,6.22
2022-10-28T09:37:36.526Z,4.72
2022-10-28T09:40:17.011Z,7.70
2022-10-28T09:42:58.499Z,10.75
2022-10-28T09:45:30.544Z,8.23
2022-10-28T09:48:13.525Z,7.28
2022-10-28T09:50:40.825Z,6.55
2022-10-28T09:53:21.351Z,7.30
2022-10-28T09:55:50.415Z,6.13
2022-10-28T09:58:18.656Z,5.97
2022-10-28T10:00:45.723Z,6.18
2022-10-28T10:03:12.706Z,5.00
2022-10-28T10:05:44.679Z,7.45
2022-10-28T10:08:16.572Z,9.68
2022-10-28T10:11:07.134Z,9.52
2022-10-28T10:13:41.241Z,5.18
2022-10-28T10:16:40.083Z,3.20
2022-10-28T10:19:09.732Z,3.20
2022-10-28T10:21:47.028Z,8.43
2022-10-28T10:24:35.115Z,4.00
2022-10-28T10:27:11.124Z,5.28
2022-10-28T10:29:43.922Z,6.35
2022-10-28T10:32:27.136Z,4.32
2022-10-28T10:35:18.312Z,5.05
2022-10-28T10:37:47.563Z,5.65
2022-10-28T10:40:17.765Z,8.85
2022-10-28T10:42:57.403Z,7.55
2022-10-28T10:45:32.719Z,5.30
2022-10-28T10:48:26.156Z,7.00
2022-10-28T10:50:53.744Z,7.22
2022-10-28T10:53:30.280Z,5.72
2022-10-28T10:56:05.998Z,5.55
2022-10-28T11:01:04.816Z,3.63
2022-10-28T11:06:33.601Z,5.05
2022-10-28T11:09:04.112Z,10.23
2022-10-28T11:11:39.880Z,7.18
2022-10-28T11:16:53.648Z,3.00
2022-10-28T11:19:37.985Z,6.28
2022-10-28T11:22:13.350Z,3.30
2022-10-28T11:25:01.952Z,4.80
2022-10-28T11:27:39.447Z,4.78
2022-10-28T11:30:12.987Z,3.72
2022-10-28T11:33:24.690Z,4.60
2022-10-28T11:36:29.923Z,2.35
2022-10-28T11:39:03.786Z,3.75
2022-10-28T11:42:28.141Z,3.88
2022-10-28T11:45:15.628Z,9.52
2022-10-28T11:47:54.673Z,4.10
2022-10-28T11:51:07.844Z,4.63
2022-10-28T11:53:53.217Z,5.80
2022-10-28T11:56:37.459Z,4.68
2022-10-28T11:59:12.853Z,3.55
2022-10-28T12:02:09.490Z,7.63
2022-10-28T12:05:10.511Z,6.65
2022-10-28T12:08:00.568Z,5.13
2022-10-28T12:10:30.514Z,4.93
2022-10-28T12:13:18.357Z,4.93
2022-10-28T12:16:09.906Z,6.60
2022-10-28T12:19:03.618Z,6.05
2022-10-28T12:21:36.584Z,5.25
2022-10-28T12:24:10.528Z,6.55
2022-10-28T12:26:43.197Z,6.00
2022-10-28T12:29:20.799Z,5.45
2022-10-28T12:32:04.537Z,6.10
2022-10-28T12:34:45.900Z,2.85
2022-10-28T12:37:21.229Z,4.30
2022-10-28T12:39:56.770Z,2.50
2022-10-28T12:42:33.992Z,2.97
2022-10-28T12:45:06.731Z,21.80
2022-10-28T12:47:40.596Z,7.28
2022-10-28T12:50:36.147Z,7.32
2022-10-28T12:53:16.827Z,5.72
2022-10-28T12:56:06.736Z,5.90
2022-10-28T12:58:51.333Z,3.47
2022-10-28T13:01:21.190Z,4.70
2022-10-28T13:03:50.445Z,7.22
2022-10-28T13:06:45.051Z,5.28
2022-10-28T13:09:39.404Z,5.93
2022-10-28T13:12:24.881Z,4.20
2022-10-28T13:15:00.699Z,4.05
2022-10-28T13:17:33.216Z,5.80
2022-10-28T13:20:20.951Z,5.90
2022-10-28T13:22:59.691Z,5.70
2022-10-28T13:25:47.798Z,6.22
2022-10-28T13:28:21.733Z,6.65
2022-10-28T13:31:00.256Z,5.78
2022-10-28T13:33:29.481Z,4.07
2022-10-28T13:36:17.416Z,4.60
2022-10-28T13:38:53.900Z,7.15
2022-10-28T13:41:43.398Z,4.18
2022-10-28T13:44:18.971Z,5.80
2022-10-28T13:47:04.356Z,6.57
2022-10-28T13:49:35.405Z,4.53
2022-10-28T13:52:08.249Z,9.52
2022-10-28T13:54:43.975Z,9.30
2022-10-28T13:57:30.217Z,10.95
2022-10-28T13:59:57.194Z,21.17
2022-10-28T14:02:35.294Z,15.98
2022-10-28T14:05:15.326Z,12.98
2022-10-28T14:07:56.685Z,10.93
2022-10-28T14:10:26.673Z,8.77
2022-10-28T14:13:00.925Z,12.38
2022-10-28T14:15:40.879Z,7.53
2022-10-28T14:21:11.799Z,15.50
2022-10-28T14:23:44.536Z,15.90
2022-10-28T14:26:11.377Z,10.45
2022-10-28T14:28:38.138Z,10.10
2022-10-28T14:31:11.497Z,16.52
2022-10-28T14:33:43.067Z,13.38
2022-10-28T14:36:18.949Z,10.90
2022-10-28T14:41:26.826Z,10.68
2022-10-28T14:44:18.085Z,13.07
2022-10-28T14:47:14.310Z,8.05
2022-10-28T14:49:44.834Z,11.90
2022-10-28T14:52:18.953Z,10.55
2022-10-28T14:54:55.422Z,10.35
2022-10-28T14:57:32.672Z,10.77
2022-10-28T15:00:07.372Z,14.45
2022-10-28T15:02:37.292Z,10.18
2022-10-28T15:05:20.543Z,9.00
2022-10-28T15:07:48.408Z,15.43
2022-10-28T15:10:19.798Z,12.77
2022-10-28T15:12:50.822Z,12.25
2022-10-28T15:15:29.963Z,9.05
2022-10-28T15:17:57.674Z,13.45
2022-10-28T15:20:33.321Z,9.65
2022-10-28T15:23:12.316Z,12.95
2022-10-28T15:25:39.276Z,11.65
2022-10-28T15:28:06.088Z,11.57
2022-10-28T15:30:34.818Z,13.32
2022-10-28T15:33:31.641Z,14.85
2022-10-28T15:36:18.792Z,10.38
2022-10-28T15:39:05.367Z,9.82
2022-10-28T15:41:42.573Z,11.10
2022-10-28T15:44:33.466Z,11.20
2022-10-28T15:47:04.689Z,11.50
2022-10-28T15:49:40.390Z,15.35
2022-10-28T15:52:30.513Z,18.05
2022-10-28T15:54:59.605Z,17.13
2022-10-28T15:57:30.753Z,12.80
2022-10-28T16:00:28.765Z,14.25
2022-10-28T16:02:59.271Z,13.63
2022-10-28T16:05:32.005Z,13.43
2022-10-28T16:08:04.189Z,12.65
2022-10-28T16:10:48.374Z,16.88
2022-10-28T16:13:24.426Z,15.60
2022-10-28T16:16:15.654Z,12.25
2022-10-28T16:18:48.239Z,11.90
2022-10-28T16:21:24.453Z,13.43
2022-10-28T16:23:56.637Z,16.45
2022-10-28T16:26:23.764Z,18.00
2022-10-28T16:28:50.534Z,15.98
2022-10-28T16:31:19.421Z,18.73
2022-10-28T16:33:46.403Z,16.17
2022-10-28T16:36:13.582Z,18.83
2022-10-28T16:38:40.696Z,20.00
2022-10-28T16:41:14.384Z,19.63
2022-10-28T16:43:41.244Z,21.92
2022-10-28T16:46:09.478Z,17.60
2022-10-28T16:48:36.267Z,20.77
2022-10-28T16:51:05.953Z,21.27
2022-10-28T16:53:32.896Z,20.40
2022-10-28T16:55:59.699Z,18.98
2022-10-28T16:58:28.052Z,16.83
2022-10-28T17:00:56.163Z,18.00
2022-10-28T17:03:23.108Z,17.80
2022-10-28T17:05:49.895Z,19.35
2022-10-28T17:08:26.287Z,16.38
2022-10-28T17:11:04.768Z,20.35
2022-10-28T17:13:31.548Z,16.30
2022-10-28T17:15:58.284Z,17.90
2022-10-28T17:18:25.138Z,17.83
2022-10-28T17:21:02.331Z,19.13
2022-10-28T17:23:29.750Z,20.35
2022-10-28T17:26:01.112Z,22.95
2022-10-28T17:28:28.058Z,18.27
2022-10-28T17:31:03.325Z,20.27
2022-10-28T17:33:30.181Z,21.98
2022-10-28T17:36:01.951Z,21.58
2022-10-28T17:38:29.591Z,22.45
2022-10-28T17:40:56.596Z,21.88
2022-10-28T17:43:23.573Z,20.80
2022-10-28T17:45:50.917Z,22.85
2022-10-28T17:48:17.830Z,23.17
2022-10-28T17:50:45.212Z,25.13
2022-10-28T17:53:12.096Z,25.25
2022-10-28T17:55:38.946Z,24.85
2022-10-28T17:58:05.722Z,25.02
2022-10-28T18:00:32.514Z,25.88
2022-10-28T18:02:59.403Z,27.63
2022-10-28T18:05:26.171Z,28.42
2022-10-28T18:07:56.086Z,30.13
2022-10-28T18:10:23.047Z,26.13
2022-10-28T18:12:51.532Z,27.55
2022-10-28T18:15:18.455Z,25.40
2022-10-28T18:17:49.406Z,28.17
2022-10-28T18:20:16.559Z,27.50
2022-10-28T18:22:43.349Z,28.13
2022-10-28T18:25:10.117Z,29.77
2022-10-28T18:27:37.061Z,28.15
2022-10-28T18:30:04.257Z,28.52
2022-10-28T18:32:32.322Z,32.03
2022-10-28T18:34:59.101Z,35.28
2022-10-28T18:37:27.870Z,29.55
2022-10-28T18:39:54.678Z,27.10
2022-10-28T18:42:22.146Z,27.80
2022-10-28T18:44:49.131Z,26.25
2022-10-28T18:47:15.905Z,27.30
2022-10-28T18:49:45.469Z,26.58
2022-10-28T18:52:12.311Z,28.95
2022-10-28T18:54:39.109Z,33.10
2022-10-28T18:57:05.865Z,32.35
2022-10-28T18:59:32.690Z,33.65
2022-10-28T19:01:59.589Z,30.80
2022-10-28T19:04:26.403Z,34.00
2022-10-28T19:06:53.205Z,31.23
2022-10-28T19:09:19.939Z,33.15
2022-10-28T19:11:46.707Z,32.58
2022-10-28T19:14:13.772Z,28.85
2022-10-28T19:16:40.595Z,35.45
2022-10-28T19:19:07.386Z,28.38
2022-10-28T19:21:34.656Z,35.00
2022-10-28T19:24:02.196Z,36.65
2022-10-28T19:26:30.304Z,29.50
2022-10-28T19:28:57.177Z,27.45
2022-10-28T19:31:26.080Z,26.80
2022-10-28T19:33:54.169Z,29.42
2022-10-28T19:36:29.338Z,25.85
2022-10-28T19:38:57.800Z,27.58
2022-10-28T19:41:29.757Z,33.70
2022-10-28T19:43:59.111Z,31.48
2022-10-28T19:46:27.545Z,28.98
2022-10-28T19:48:56.692Z,31.35
2022-10-28T19:51:28.578Z,29.33
2022-10-28T19:53:57.553Z,28.70
2022-10-28T19:56:24.712Z,31.67
2022-10-28T19:58:56.542Z,28.40
2022-10-28T20:01:25.193Z,31.95
2022-10-28T20:03:53.282Z,26.70
2022-10-28T20:06:22.411Z,26.90
2022-10-28T20:08:50.056Z,25.63
2022-10-28T20:11:26.126Z,27.92
2022-10-28T20:13:58.758Z,31.13
2022-10-28T20:16:25.964Z,31.13
2022-10-28T20:18:56.307Z,32.30
2022-10-28T20:21:25.129Z,34.42
2022-10-28T20:23:54.220Z,31.15
2022-10-28T20:26:26.280Z,33.60
2022-10-28T20:28:53.339Z,27.73
2022-10-28T20:31:22.454Z,27.58
2022-10-28T20:34:01.658Z,27.20
2022-10-28T20:36:46.409Z,29.38
2022-10-28T20:39:16.166Z,25.45
2022-10-28T20:41:44.523Z,24.42
2022-10-28T20:44:11.634Z,27.25
2022-10-28T20:46:38.715Z,28.75
2022-10-28T20:49:08.525Z,25.90
2022-10-28T20:51:36.015Z,27.42
2022-10-28T20:54:03.244Z,22.13
2022-10-28T20:56:33.167Z,22.65
2022-10-28T20:59:00.317Z,25.63
2022-10-28T21:01:39.178Z,22.52
2022-10-28T21:04:09.060Z,24.08
2022-10-28T21:06:38.732Z,22.05
2022-10-28T21:09:06.809Z,28.40
2022-10-28T21:11:33.594Z,22.05
2022-10-28T21:14:01.718Z,25.38
2022-10-28T21:16:29.517Z,27.83
2022-10-28T21:18:56.830Z,29.38
2022-10-28T21:21:24.825Z,25.67
2022-10-28T21:23:52.128Z,23.98
2022-10-28T21:26:18.995Z,22.45
2022-10-28T21:28:49.660Z,22.85
2022-10-28T21:31:18.244Z,23.67
2022-10-28T21:33:45.636Z,22.15
2022-10-28T21:36:22.101Z,24.60
2022-10-28T21:38:52.339Z,26.50
2022-10-28T21:41:20.784Z,28.13
2022-10-28T21:43:49.692Z,25.15
2022-10-28T21:46:20.483Z,26.73
2022-10-28T21:48:47.548Z,26.10
2022-10-28T21:51:15.903Z,27.70
2022-10-28T21:53:44.310Z,27.23
2022-10-28T21:56:21.860Z,23.38
2022-10-28T21:58:50.527Z,23.10
2022-10-28T22:01:26.220Z,24.63
2022-10-28T22:03:55.290Z,24.40
2022-10-28T22:06:22.508Z,26.77
2022-10-28T22:08:49.351Z,24.65
2022-10-28T22:11:18.595Z,26.45
2022-10-28T22:13:45.512Z,26.20
2022-10-28T22:16:15.119Z,28.90
2022-10-28T22:18:42.754Z,26.27
2022-10-28T22:21:15.798Z,26.38
2022-10-28T22:23:43.396Z,33.22
2022-10-28T22:26:13.085Z,27.67
2022-10-28T22:28:40.409Z,30.35
2022-10-28T22:31:09.866Z,30.27
2022-10-28T22:33:37.594Z,30.13
2022-10-28T22:36:06.968Z,32.40
2022-10-28T22:38:34.100Z,30.63
2022-10-28T22:41:01.727Z,28.75
2022-10-28T22:43:28.622Z,28.30
2022-10-28T22:45:59.127Z,31.02
2022-10-28T22:48:26.618Z,30.08
2022-10-28T22:50:53.604Z,25.58
2022-10-28T22:53:20.417Z,27.73
2022-10-28T22:55:47.734Z,28.50
2022-10-28T22:58:16.230Z,26.85
2022-10-28T23:00:43.505Z,24.00
2022-10-28T23:03:10.761Z,25.52
2022-10-28T23:05:37.592Z,26.23
2022-10-28T23:08:04.449Z,26.15
2022-10-28T23:10:31.478Z,26.55
2022-10-28T23:13:02.175Z,28.35
2022-10-28T23:15:30.173Z,29.95
2022-10-28T23:17:57.421Z,26.95
2022-10-28T23:20:25.265Z,25.70
2022-10-28T23:22:55.431Z,25.98
2022-10-28T23:25:22.191Z,28.52
2022-10-28T23:27:48.962Z,28.67
2022-10-28T23:30:15.994Z,27.67
2022-10-28T23:32:42.770Z,28.00
2022-10-28T23:35:09.639Z,22.45
2022-10-28T23:37:36.498Z,23.55
2022-10-28T23:40:03.612Z,25.73
2022-10-28T23:42:30.521Z,24.10
2022-10-28T23:44:57.336Z,19.55
2022-10-28T23:47:24.097Z,19.52
2022-10-28T23:49:50.910Z,24.48
2022-10-28T23:52:17.658Z,21.88
2022-10-28T23:54:44.416Z,19.30
2022-10-28T23:57:11.253Z,19.70
2022-10-28T23:59:38.039Z,22.27
